地図

経路データ

SID SEASON NUMBER BASIN SUBBASIN NAME ISO_TIME NATURE LAT LON WMO_WIND WMO_PRES WMO_AGENCY TRACK_TYPE DIST2LAND LANDFALL IFLAG USA_AGENCY USA_ATCF_ID USA_LAT USA_LON USA_RECORD USA_STATUS USA_WIND USA_PRES USA_SSHS USA_R34_NE USA_R34_SE USA_R34_SW USA_R34_NW USA_R50_NE USA_R50_SE USA_R50_SW USA_R50_NW USA_R64_NE USA_R64_SE USA_R64_SW USA_R64_NW USA_POCI USA_ROCI USA_RMW USA_EYE TOKYO_LAT TOKYO_LON TOKYO_GRADE TOKYO_WIND TOKYO_PRES TOKYO_R50_DIR TOKYO_R50_LONG TOKYO_R50_SHORT TOKYO_R30_DIR TOKYO_R30_LONG TOKYO_R30_SHORT TOKYO_LAND CMA_LAT CMA_LON CMA_CAT CMA_WIND CMA_PRES HKO_LAT HKO_LON HKO_CAT HKO_WIND HKO_PRES NEWDELHI_LAT NEWDELHI_LON NEWDELHI_GRADE NEWDELHI_WIND NEWDELHI_PRES NEWDELHI_CI NEWDELHI_DP NEWDELHI_POCI REUNION_LAT REUNION_LON REUNION_TYPE REUNION_WIND REUNION_PRES REUNION_TNUM REUNION_CI REUNION_RMW REUNION_R34_NE REUNION_R34_SE REUNION_R34_SW REUNION_R34_NW REUNION_R50_NE REUNION_R50_SE REUNION_R50_SW REUNION_R50_NW REUNION_R64_NE REUNION_R64_SE REUNION_R64_SW REUNION_R64_NW BOM_LAT BOM_LON BOM_TYPE BOM_WIND BOM_PRES BOM_TNUM BOM_CI BOM_RMW BOM_R34_NE BOM_R34_SE BOM_R34_SW BOM_R34_NW BOM_R50_NE BOM_R50_SE BOM_R50_SW BOM_R50_NW BOM_R64_NE BOM_R64_SE BOM_R64_SW BOM_R64_NW BOM_ROCI BOM_POCI BOM_EYE BOM_POS_METHOD BOM_PRES_METHOD NADI_LAT NADI_LON NADI_CAT NADI_WIND NADI_PRES WELLINGTON_LAT WELLINGTON_LON WELLINGTON_WIND WELLINGTON_PRES DS824_LAT DS824_LON DS824_STAGE DS824_WIND DS824_PRES TD9636_LAT TD9636_LON TD9636_STAGE TD9636_WIND TD9636_PRES TD9635_LAT TD9635_LON TD9635_WIND TD9635_PRES TD9635_ROCI NEUMANN_LAT NEUMANN_LON NEUMANN_CLASS NEUMANN_WIND NEUMANN_PRES MLC_LAT MLC_LON MLC_CLASS MLC_WIND MLC_PRES USA_GUST BOM_GUST BOM_GUST_PER REUNION_GUST REUNION_GUST_PER USA_SEAHGT USA_SEARAD_NE USA_SEARAD_SE USA_SEARAD_SW USA_SEARAD_NW STORM_SPEED STORM_DIR
1950166N14262 1950 28 EP MM NOT_NAMED 1950-06-14 12:00:00 TS 14.1000 -98.2000 75 hurdat_epa main 216 216 O________OO___ hurdat_epa EP011950 14.1000 -98.2000 HU 75 1 14.1000 -98.2000 TC 75 14.1000 -98.2000 4 3 287
1950166N14262 1950 28 EP MM NOT_NAMED 1950-06-14 15:00:00 TS 14.1435 -98.3448 main 219 211 P________PP___ EP011950 14.1450 -98.3450 HU 75 1 14.1450 -98.3450 TC 75 14.1374 -98.3440 4 3 289
1950166N14262 1950 28 EP MM NOT_NAMED 1950-06-14 18:00:00 TS 14.1980 -98.5001 75 hurdat_epa main 215 208 O________OP___ hurdat_epa EP011950 14.2000 -98.5000 HU 75 1 14.2000 -98.5000 TC 75 14.1898 -98.5004 4 4 292
1950166N14262 1950 28 EP MM NOT_NAMED 1950-06-14 21:00:00 TS 14.2764 -98.6784 main 213 208 P________PP___ EP011950 14.2775 -98.6776 HU 75 1 14.2775 -98.6776 TC 75 14.2724 -98.6816 4 4 298
1950166N14262 1950 28 EP MM NOT_NAMED 1950-06-15 00:00:00 TS 14.4000 -98.9000 75 hurdat_epa main 214 197 O________OO___ hurdat_epa EP011950 14.4000 -98.9000 HU 75 1 14.4000 -98.9000 TC 75 14.4000 -98.9000 4 6 302
1950166N14262 1950 28 EP MM NOT_NAMED 1950-06-15 03:00:00 TS 14.5842 -99.1921 main 200 188 P________PP___ EP011950 14.5851 -99.1999 HU 75 1 14.5851 -99.1999 TC 75 14.5805 -99.1605 4 7 305
1950166N14262 1950 28 EP MM NOT_NAMED 1950-06-15 06:00:00 TS 14.7986 -99.4874 75 hurdat_epa main 193 187 O________OP___ hurdat_epa EP011950 14.8000 -99.5000 HU 75 1 14.8000 -99.5000 TC 75 14.7928 -99.4369 4 7 310
1950166N14262 1950 28 EP MM NOT_NAMED 1950-06-15 09:00:00 TS 15.0137 -99.7290 main 187 169 P________PP___ EP011950 15.0150 -99.7375 HU 75 1 15.0150 -99.7375 TC 75 15.0087 -99.6949 4 6 315
1950166N14262 1950 28 EP MM NOT_NAMED 1950-06-15 12:00:00 TS 15.2000 -99.9000 75 hurdat_epa main 169 158 O________OO___ hurdat_epa EP011950 15.2000 -99.9000 HU 75 1 15.2000 -99.9000 TC 75 15.2000 -99.9000 4 4 321
1950166N14262 1950 28 EP MM NOT_NAMED 1950-06-15 15:00:00 TS 15.3169 -99.9796 main 159 148 P________PP___ EP011950 15.3150 -99.9726 HU 75 1 15.3150 -99.9726 TC 75 15.3245 -100.008 4 2 332
1950166N14262 1950 28 EP MM NOT_NAMED 1950-06-15 18:00:00 TS 15.4045 -100.012 75 hurdat_epa main 148 138 O________OP___ hurdat_epa EP011950 15.4000 -100.000 HU 75 1 15.4000 -100.000 TC 75 15.4223 -100.060 4 2 337
1950166N14262 1950 28 EP MM NOT_NAMED 1950-06-15 21:00:00 TS 15.4958 -100.057 main 140 130 P________PP___ EP011950 15.4925 -100.050 HU 75 1 15.4925 -100.050 TC 75 15.5089 -100.083 4 2 337
1950166N14262 1950 28 EP MM NOT_NAMED 1950-06-16 00:00:00 TS 15.6000 -100.100 75 hurdat_epa main 130 119 O________OO___ hurdat_epa EP011950 15.6000 -100.100 HU 75 1 15.6000 -100.100 TC 75 15.6000 -100.100 4 3 341
1950166N14262 1950 28 EP MM NOT_NAMED 1950-06-16 03:00:00 TS 15.7468 -100.145 main 119 104 P________PP___ EP011950 15.7500 -100.150 HU 75 1 15.7500 -100.150 TC 75 15.7340 -100.126 4 3 344
1950166N14262 1950 28 EP MM NOT_NAMED 1950-06-16 06:00:00 TS 15.8945 -100.191 75 hurdat_epa main 104 94 O________OP___ hurdat_epa EP011950 15.9000 -100.200 HU 75 1 15.9000 -100.200 TC 75 15.8724 -100.155 4 3 344
1950166N14262 1950 28 EP MM NOT_NAMED 1950-06-16 09:00:00 TS 16.0179 -100.229 main 94 85 P________PP___ EP011950 16.0225 -100.235 HU 75 1 16.0225 -100.235 TC 75 15.9996 -100.207 4 2 333
1950166N14262 1950 28 EP MM NOT_NAMED 1950-06-16 12:00:00 TS 16.1000 -100.300 75 hurdat_epa main 92 92 O________OO___ hurdat_epa EP011950 16.1000 -100.300 HU 75 1 16.1000 -100.300 TC 75 16.1000 -100.300 4 2 297
1950166N14262 1950 28 EP MM NOT_NAMED 1950-06-16 15:00:00 TS 16.1143 -100.426 main 99 99 P________PP___ EP011950 16.1075 -100.420 HU 75 1 16.1075 -100.420 TC 75 16.1416 -100.449 4 3 272
1950166N14262 1950 28 EP MM NOT_NAMED 1950-06-16 18:00:00 TS 16.1115 -100.608 75 hurdat_epa main 109 109 O________OP___ hurdat_epa EP011950 16.1000 -100.600 HU 75 1 16.1000 -100.600 TC 75 16.1575 -100.640 4 4 274
1950166N14262 1950 28 EP MM NOT_NAMED 1950-06-16 21:00:00 TS 16.1419 -100.840 main 116 109 P________PP___ EP011950 16.1350 -100.835 HU 75 1 16.1350 -100.835 TC 75 16.1697 -100.861 4 5 281
1950166N14262 1950 28 EP MM NOT_NAMED 1950-06-17 00:00:00 TS 16.2000 -101.100 75 hurdat_epa main 116 109 O________OO___ hurdat_epa EP011950 16.2000 -101.100 HU 75 1 16.2000 -101.100 TC 75 16.2000 -101.100 4 5 287
1950166N14262 1950 28 EP MM NOT_NAMED 1950-06-17 03:00:00 TS 16.2896 -101.343 main 113 109 P________PP___ EP011950 16.2925 -101.350 HU 75 1 16.2925 -101.350 TC 75 16.2782 -101.315 4 5 293
1950166N14262 1950 28 EP MM NOT_NAMED 1950-06-17 06:00:00 TS 16.3954 -101.590 75 hurdat_epa main 113 109 O________OP___ hurdat_epa EP011950 16.4000 -101.600 HU 75 1 16.4000 -101.600 TC 75 16.3772 -101.548 4 5 294
1950166N14262 1950 28 EP MM NOT_NAMED 1950-06-17 09:00:00 TS 16.4974 -101.829 main 116 116 P________PP___ EP011950 16.4999 -101.835 HU 75 1 16.4999 -101.835 TC 75 16.4875 -101.806 4 5 293
1950166N14262 1950 28 EP MM NOT_NAMED 1950-06-17 12:00:00 TS 16.6000 -102.100 75 hurdat_epa main 128 128 O________OO___ hurdat_epa EP011950 16.6000 -102.100 HU 75 1 16.6000 -102.100 TC 75 16.6000 -102.100 4 6 289
1950166N14262 1950 28 EP MM NOT_NAMED 1950-06-17 15:00:00 TS 16.6942 -102.423 main 134 127 P________PP___ EP011950 16.7000 -102.428 HU 75 1 16.7000 -102.428 TC 75 16.6711 -102.403 4 7 286
1950166N14262 1950 28 EP MM NOT_NAMED 1950-06-17 18:00:00 TS 16.7893 -102.789 75 hurdat_epa main 134 130 O________OP___ hurdat_epa EP011950 16.8000 -102.800 HU 75 1 16.8000 -102.800 TC 75 16.7467 -102.746 4 7 285
1950166N14262 1950 28 EP MM NOT_NAMED 1950-06-17 21:00:00 TS 16.8775 -103.146 main 134 134 P________PP___ EP011950 16.8846 -103.148 HU 75 1 16.8846 -103.148 TC 75 16.8490 -103.141 4 8 285
1950166N14262 1950 28 EP MM NOT_NAMED 1950-06-18 00:00:00 TS 17.0000 -103.600 75 hurdat_epa main 140 137 O________OO___ hurdat_epa EP011950 17.0000 -103.600 HU 75 1 17.0000 -103.600 TC 75 17.0000 -103.600 4 11 285
1950166N14262 1950 28 EP MM NOT_NAMED 1950-06-18 03:00:00 TS 17.1699 -104.267 main 149 149 P________PP___ EP011950 17.1629 -104.285 HU 75 1 17.1629 -104.285 TC 75 17.1976 -104.196 4 14 287
1950166N14262 1950 28 EP MM NOT_NAMED 1950-06-18 06:00:00 TS 17.4094 -104.969 75 hurdat_epa main 188 183 O________OP___ hurdat_epa EP011950 17.4000 -105.000 HU 75 1 17.4000 -105.000 TC 75 17.4470 -104.844 4 14 294
1950166N14262 1950 28 EP MM NOT_NAMED 1950-06-18 09:00:00 TS 17.7195 -105.578 main 187 176 P________PP___ EP011950 17.7125 -105.605 HU 75 1 17.7125 -105.605 TC 75 17.7477 -105.471 4 12 305
1950166N14262 1950 28 EP MM NOT_NAMED 1950-06-18 12:00:00 TS 18.1000 -106.000 75 hurdat_epa main 176 153 O________OO___ hurdat_epa EP011950 18.1000 -106.000 HU 75 1 18.1000 -106.000 TC 75 18.1000 -106.000 4 10 327
1950166N14262 1950 28 EP MM NOT_NAMED 1950-06-18 15:00:00 TS 18.5240 -106.127 main 153 114 P________PP___ EP011950 18.5273 -106.075 HU 75 1 18.5273 -106.075 TC 75 18.5107 -106.334 4 9 353
1950166N14262 1950 28 EP MM NOT_NAMED 1950-06-18 18:00:00 TS 18.9937 -106.113 75 hurdat_epa main 114 84 O________OP___ hurdat_epa EP011950 19.0000 -106.000 HU 75 1 19.0000 -106.000 TC 75 18.9686 -106.564 4 10 359
1950166N14262 1950 28 EP MM NOT_NAMED 1950-06-18 21:00:00 TS 19.4945 -106.147 main 84 68 P________PP___ EP011950 19.5075 -106.000 HU 75 1 19.5075 -106.000 TC 75 19.4423 -106.737 4 10 356
1950166N14262 1950 28 EP MM NOT_NAMED 1950-06-19 00:00:00 TS 19.9800 -106.180 75 hurdat_epa main 68 52 O________OO___ hurdat_epa EP011950 20.0000 -106.000 HU 75 1 20.0000 -106.000 TC 75 19.9000 -106.900 4 9 355
1950166N14262 1950 28 EP MM NOT_NAMED 1950-06-19 03:00:00 TS 20.4014 -106.218 main 52 52 P________PP___ EP011950 20.4225 -106.000 HU 75 1 20.4225 -106.000 TC 75 20.3172 -107.091 4 8 354
1950166N14262 1950 28 EP MM NOT_NAMED 1950-06-19 06:00:00 TS 20.7797 -106.262 75 hurdat_epa main 76 76 O________OP___ hurdat_epa EP011950 20.8000 -106.000 HU 75 1 20.8000 -106.000 TC 75 20.6983 -107.311 4 7 353
1950166N14262 1950 28 EP MM NOT_NAMED 1950-06-19 09:00:00 TS 21.1351 -106.310 main 89 89 P________PP___ EP011950 21.1550 -106.000 HU 75 1 21.1550 -106.000 TC 75 21.0553 -107.550 4 7 353
1950166N14262 1950 28 EP MM NOT_NAMED 1950-06-19 12:00:00 TS 21.4800 -106.360 75 hurdat_epa main 98 O________OO___ hurdat_epa EP011950 21.5000 -106.000 HU 75 1 21.5000 -106.000 TC 75 21.4000 -107.800 4 7 353

IBTrACS Databaseについて

本データベースは、米国NOAAが公開する1842年以降の世界の熱帯低気圧のベストトラックデータアーカイブInternational Best Track Archive for Climate Stewardship (IBTrACS)を、ウェブで閲覧しやすい形式に変換したものです。

最終更新日:2021-10-08